sensor_id;sensor_type;location;lat;lon;timestamp;P1;durP1;ratioP1;P2;durP2;ratioP2
6499;SDS011;3283;52.330;9.772;2022-07-23T00:00:42;10.60;;;6.70;;
6499;SDS011;3283;52.330;9.772;2022-07-23T00:03:08;7.40;;;6.10;;
6499;SDS011;3283;52.330;9.772;2022-07-23T00:05:33;10.70;;;6.00;;
6499;SDS011;3283;52.330;9.772;2022-07-23T00:07:58;8.67;;;6.20;;
6499;SDS011;3283;52.330;9.772;2022-07-23T00:10:24;6.67;;;5.87;;
6499;SDS011;3283;52.330;9.772;2022-07-23T00:12:49;11.37;;;6.30;;
6499;SDS011;3283;52.330;9.772;2022-07-23T00:15:14;14.60;;;6.03;;
6499;SDS011;3283;52.330;9.772;2022-07-23T00:17:40;10.60;;;5.57;;
6499;SDS011;3283;52.330;9.772;2022-07-23T00:20:05;11.17;;;7.23;;
6499;SDS011;3283;52.330;9.772;2022-07-23T00:22:31;12.73;;;8.03;;
6499;SDS011;3283;52.330;9.772;2022-07-23T00:24:56;10.10;;;7.47;;
6499;SDS011;3283;52.330;9.772;2022-07-23T00:27:21;12.50;;;7.20;;
6499;SDS011;3283;52.330;9.772;2022-07-23T00:29:47;11.80;;;7.10;;
6499;SDS011;3283;52.330;9.772;2022-07-23T00:32:12;8.93;;;6.17;;
6499;SDS011;3283;52.330;9.772;2022-07-23T00:34:37;10.97;;;7.10;;
6499;SDS011;3283;52.330;9.772;2022-07-23T00:37:03;9.70;;;6.77;;
6499;SDS011;3283;52.330;9.772;2022-07-23T00:39:28;10.80;;;6.07;;
6499;SDS011;3283;52.330;9.772;2022-07-23T00:41:53;13.23;;;7.00;;
6499;SDS011;3283;52.330;9.772;2022-07-23T00:44:20;14.50;;;7.53;;
6499;SDS011;3283;52.330;9.772;2022-07-23T00:46:49;9.70;;;5.73;;
6499;SDS011;3283;52.330;9.772;2022-07-23T00:49:14;8.57;;;6.00;;
6499;SDS011;3283;52.330;9.772;2022-07-23T00:51:40;15.83;;;7.20;;
6499;SDS011;3283;52.330;9.772;2022-07-23T00:54:05;10.23;;;6.33;;
6499;SDS011;3283;52.330;9.772;2022-07-23T00:56:31;8.80;;;5.83;;
6499;SDS011;3283;52.330;9.772;2022-07-23T00:58:56;6.60;;;5.80;;
6499;SDS011;3283;52.330;9.772;2022-07-23T01:01:22;6.80;;;5.47;;
6499;SDS011;3283;52.330;9.772;2022-07-23T01:03:47;9.83;;;6.37;;
6499;SDS011;3283;52.330;9.772;2022-07-23T01:06:12;8.33;;;6.67;;
6499;SDS011;3283;52.330;9.772;2022-07-23T01:08:38;7.17;;;6.27;;
6499;SDS011;3283;52.330;9.772;2022-07-23T01:11:03;8.03;;;6.77;;
6499;SDS011;3283;52.330;9.772;2022-07-23T01:13:29;6.90;;;6.27;;
6499;SDS011;3283;52.330;9.772;2022-07-23T01:15:55;6.43;;;5.80;;
6499;SDS011;3283;52.330;9.772;2022-07-23T01:18:20;8.93;;;6.93;;
6499;SDS011;3283;52.330;9.772;2022-07-23T01:20:45;11.53;;;9.20;;
6499;SDS011;3283;52.330;9.772;2022-07-23T01:23:10;9.50;;;7.07;;
6499;SDS011;3283;52.330;9.772;2022-07-23T01:25:36;7.53;;;6.73;;
6499;SDS011;3283;52.330;9.772;2022-07-23T01:28:01;8.87;;;5.90;;
6499;SDS011;3283;52.330;9.772;2022-07-23T01:30:26;8.80;;;6.70;;
6499;SDS011;3283;52.330;9.772;2022-07-23T01:32:52;8.00;;;5.83;;
6499;SDS011;3283;52.330;9.772;2022-07-23T01:35:17;8.93;;;7.20;;
6499;SDS011;3283;52.330;9.772;2022-07-23T01:37:42;8.40;;;6.40;;
6499;SDS011;3283;52.330;9.772;2022-07-23T01:40:08;10.00;;;7.87;;
6499;SDS011;3283;52.330;9.772;2022-07-23T01:42:33;14.33;;;6.30;;
6499;SDS011;3283;52.330;9.772;2022-07-23T01:44:59;12.73;;;7.30;;
6499;SDS011;3283;52.330;9.772;2022-07-23T01:47:24;12.70;;;7.40;;
6499;SDS011;3283;52.330;9.772;2022-07-23T01:49:49;7.47;;;6.77;;
6499;SDS011;3283;52.330;9.772;2022-07-23T01:52:14;8.00;;;6.50;;
6499;SDS011;3283;52.330;9.772;2022-07-23T01:54:40;8.23;;;6.70;;
6499;SDS011;3283;52.330;9.772;2022-07-23T01:57:06;11.47;;;7.40;;
6499;SDS011;3283;52.330;9.772;2022-07-23T01:59:31;10.90;;;7.43;;
6499;SDS011;3283;52.330;9.772;2022-07-23T02:01:56;11.10;;;6.60;;
6499;SDS011;3283;52.330;9.772;2022-07-23T02:04:22;9.07;;;6.87;;
6499;SDS011;3283;52.330;9.772;2022-07-23T02:06:48;8.47;;;6.67;;
6499;SDS011;3283;52.330;9.772;2022-07-23T02:09:14;9.87;;;7.50;;
6499;SDS011;3283;52.330;9.772;2022-07-23T02:11:39;11.13;;;7.73;;
6499;SDS011;3283;52.330;9.772;2022-07-23T02:14:05;11.10;;;6.50;;
6499;SDS011;3283;52.330;9.772;2022-07-23T02:16:30;11.53;;;7.13;;
6499;SDS011;3283;52.330;9.772;2022-07-23T02:18:55;8.50;;;6.80;;
6499;SDS011;3283;52.330;9.772;2022-07-23T02:21:21;8.23;;;7.30;;
6499;SDS011;3283;52.330;9.772;2022-07-23T02:23:46;8.30;;;6.90;;
6499;SDS011;3283;52.330;9.772;2022-07-23T02:26:11;12.93;;;7.33;;
6499;SDS011;3283;52.330;9.772;2022-07-23T02:28:37;11.33;;;7.53;;
6499;SDS011;3283;52.330;9.772;2022-07-23T02:31:02;7.17;;;6.53;;
6499;SDS011;3283;52.330;9.772;2022-07-23T02:33:28;8.07;;;6.60;;
6499;SDS011;3283;52.330;9.772;2022-07-23T02:35:53;12.00;;;6.87;;
6499;SDS011;3283;52.330;9.772;2022-07-23T02:38:19;6.97;;;5.70;;
6499;SDS011;3283;52.330;9.772;2022-07-23T02:40:44;11.30;;;7.07;;
6499;SDS011;3283;52.330;9.772;2022-07-23T02:43:09;6.73;;;6.10;;
6499;SDS011;3283;52.330;9.772;2022-07-23T02:45:35;13.10;;;7.00;;
6499;SDS011;3283;52.330;9.772;2022-07-23T02:48:00;9.63;;;6.80;;
6499;SDS011;3283;52.330;9.772;2022-07-23T02:50:25;7.40;;;6.60;;
6499;SDS011;3283;52.330;9.772;2022-07-23T02:52:50;7.30;;;6.60;;
6499;SDS011;3283;52.330;9.772;2022-07-23T02:55:16;9.00;;;6.40;;
6499;SDS011;3283;52.330;9.772;2022-07-23T02:57:41;11.57;;;6.60;;
6499;SDS011;3283;52.330;9.772;2022-07-23T03:00:07;8.00;;;6.73;;
6499;SDS011;3283;52.330;9.772;2022-07-23T03:02:32;10.87;;;7.10;;
6499;SDS011;3283;52.330;9.772;2022-07-23T03:04:58;13.90;;;7.13;;
6499;SDS011;3283;52.330;9.772;2022-07-23T03:07:23;8.20;;;6.90;;
6499;SDS011;3283;52.330;9.772;2022-07-23T03:09:48;8.70;;;6.43;;
6499;SDS011;3283;52.330;9.772;2022-07-23T03:12:14;10.80;;;6.63;;
6499;SDS011;3283;52.330;9.772;2022-07-23T03:14:39;9.70;;;7.10;;
6499;SDS011;3283;52.330;9.772;2022-07-23T03:17:04;9.20;;;6.33;;
6499;SDS011;3283;52.330;9.772;2022-07-23T03:19:30;15.10;;;7.40;;
6499;SDS011;3283;52.330;9.772;2022-07-23T03:21:55;7.93;;;7.00;;
6499;SDS011;3283;52.330;9.772;2022-07-23T03:24:21;8.13;;;6.87;;
6499;SDS011;3283;52.330;9.772;2022-07-23T03:26:48;9.00;;;6.30;;
6499;SDS011;3283;52.330;9.772;2022-07-23T03:29:13;6.90;;;6.20;;
6499;SDS011;3283;52.330;9.772;2022-07-23T03:31:39;12.27;;;6.27;;
6499;SDS011;3283;52.330;9.772;2022-07-23T03:34:04;8.43;;;7.60;;
6499;SDS011;3283;52.330;9.772;2022-07-23T03:36:29;10.97;;;6.40;;
6499;SDS011;3283;52.330;9.772;2022-07-23T03:38:54;10.87;;;7.20;;
6499;SDS011;3283;52.330;9.772;2022-07-23T03:41:20;10.13;;;7.37;;
6499;SDS011;3283;52.330;9.772;2022-07-23T03:43:45;14.03;;;10.37;;
6499;SDS011;3283;52.330;9.772;2022-07-23T03:46:11;13.37;;;7.70;;
6499;SDS011;3283;52.330;9.772;2022-07-23T03:48:37;10.50;;;6.60;;
6499;SDS011;3283;52.330;9.772;2022-07-23T03:51:02;13.83;;;7.90;;
6499;SDS011;3283;52.330;9.772;2022-07-23T03:53:27;11.17;;;6.90;;
6499;SDS011;3283;52.330;9.772;2022-07-23T03:55:53;9.83;;;7.27;;
6499;SDS011;3283;52.330;9.772;2022-07-23T03:58:18;6.57;;;5.97;;
6499;SDS011;3283;52.330;9.772;2022-07-23T04:00:43;14.20;;;8.30;;
6499;SDS011;3283;52.330;9.772;2022-07-23T04:03:08;10.10;;;7.43;;
6499;SDS011;3283;52.330;9.772;2022-07-23T04:05:34;10.93;;;6.63;;
6499;SDS011;3283;52.330;9.772;2022-07-23T04:07:59;8.60;;;7.70;;
6499;SDS011;3283;52.330;9.772;2022-07-23T04:10:24;8.03;;;7.23;;
6499;SDS011;3283;52.330;9.772;2022-07-23T04:12:50;11.27;;;7.93;;
6499;SDS011;3283;52.330;9.772;2022-07-23T04:15:15;8.60;;;6.57;;
6499;SDS011;3283;52.330;9.772;2022-07-23T04:17:40;9.03;;;8.13;;
6499;SDS011;3283;52.330;9.772;2022-07-23T04:20:06;8.90;;;7.20;;
6499;SDS011;3283;52.330;9.772;2022-07-23T04:22:31;9.70;;;7.13;;
6499;SDS011;3283;52.330;9.772;2022-07-23T04:24:56;7.67;;;6.87;;
6499;SDS011;3283;52.330;9.772;2022-07-23T04:27:22;11.50;;;8.27;;
6499;SDS011;3283;52.330;9.772;2022-07-23T04:29:47;12.10;;;7.97;;
6499;SDS011;3283;52.330;9.772;2022-07-23T04:32:12;9.10;;;7.70;;
6499;SDS011;3283;52.330;9.772;2022-07-23T04:34:37;13.33;;;7.77;;
6499;SDS011;3283;52.330;9.772;2022-07-23T04:37:03;10.20;;;7.50;;
6499;SDS011;3283;52.330;9.772;2022-07-23T04:39:28;14.10;;;7.87;;
6499;SDS011;3283;52.330;9.772;2022-07-23T04:41:54;14.47;;;7.83;;
6499;SDS011;3283;52.330;9.772;2022-07-23T04:44:19;11.03;;;8.00;;
6499;SDS011;3283;52.330;9.772;2022-07-23T04:46:44;14.63;;;8.17;;
6499;SDS011;3283;52.330;9.772;2022-07-23T04:49:09;7.90;;;7.13;;
6499;SDS011;3283;52.330;9.772;2022-07-23T04:51:35;15.93;;;8.83;;
6499;SDS011;3283;52.330;9.772;2022-07-23T04:54:00;12.57;;;8.70;;
6499;SDS011;3283;52.330;9.772;2022-07-23T04:56:25;9.43;;;8.07;;
6499;SDS011;3283;52.330;9.772;2022-07-23T04:58:50;11.70;;;10.50;;
6499;SDS011;3283;52.330;9.772;2022-07-23T05:01:16;11.53;;;8.70;;
6499;SDS011;3283;52.330;9.772;2022-07-23T05:03:41;12.03;;;8.67;;
6499;SDS011;3283;52.330;9.772;2022-07-23T05:06:06;16.27;;;8.47;;
6499;SDS011;3283;52.330;9.772;2022-07-23T05:08:32;11.13;;;8.87;;
6499;SDS011;3283;52.330;9.772;2022-07-23T05:10:57;13.90;;;8.63;;
6499;SDS011;3283;52.330;9.772;2022-07-23T05:13:22;11.40;;;8.03;;
6499;SDS011;3283;52.330;9.772;2022-07-23T05:15:48;9.70;;;8.47;;
6499;SDS011;3283;52.330;9.772;2022-07-23T05:18:13;13.20;;;8.10;;
6499;SDS011;3283;52.330;9.772;2022-07-23T05:20:38;11.90;;;8.50;;
6499;SDS011;3283;52.330;9.772;2022-07-23T05:23:04;10.70;;;8.97;;
6499;SDS011;3283;52.330;9.772;2022-07-23T05:25:29;15.70;;;10.13;;
6499;SDS011;3283;52.330;9.772;2022-07-23T05:27:54;10.27;;;8.10;;
6499;SDS011;3283;52.330;9.772;2022-07-23T05:30:20;16.37;;;8.80;;
6499;SDS011;3283;52.330;9.772;2022-07-23T05:32:45;10.53;;;7.97;;
6499;SDS011;3283;52.330;9.772;2022-07-23T05:35:10;12.47;;;9.03;;
6499;SDS011;3283;52.330;9.772;2022-07-23T05:37:36;10.77;;;9.10;;
6499;SDS011;3283;52.330;9.772;2022-07-23T05:40:05;12.63;;;8.67;;
6499;SDS011;3283;52.330;9.772;2022-07-23T05:42:32;12.20;;;8.83;;
6499;SDS011;3283;52.330;9.772;2022-07-23T05:44:58;12.40;;;8.73;;
6499;SDS011;3283;52.330;9.772;2022-07-23T05:47:23;11.00;;;8.47;;
6499;SDS011;3283;52.330;9.772;2022-07-23T05:49:48;10.90;;;8.97;;
6499;SDS011;3283;52.330;9.772;2022-07-23T05:52:14;12.50;;;9.33;;
6499;SDS011;3283;52.330;9.772;2022-07-23T05:54:39;11.77;;;8.23;;
6499;SDS011;3283;52.330;9.772;2022-07-23T05:57:04;17.40;;;8.00;;
6499;SDS011;3283;52.330;9.772;2022-07-23T05:59:30;13.03;;;8.37;;
6499;SDS011;3283;52.330;9.772;2022-07-23T06:01:55;12.57;;;7.00;;
6499;SDS011;3283;52.330;9.772;2022-07-23T06:04:20;11.77;;;7.77;;
6499;SDS011;3283;52.330;9.772;2022-07-23T06:06:46;11.07;;;8.17;;
6499;SDS011;3283;52.330;9.772;2022-07-23T06:09:11;10.70;;;7.63;;
6499;SDS011;3283;52.330;9.772;2022-07-23T06:11:38;10.20;;;7.27;;
6499;SDS011;3283;52.330;9.772;2022-07-23T06:14:04;9.67;;;7.80;;
6499;SDS011;3283;52.330;9.772;2022-07-23T06:16:29;12.93;;;7.17;;
6499;SDS011;3283;52.330;9.772;2022-07-23T06:18:54;8.90;;;6.00;;
6499;SDS011;3283;52.330;9.772;2022-07-23T06:21:20;12.60;;;7.27;;
6499;SDS011;3283;52.330;9.772;2022-07-23T06:23:45;9.43;;;7.20;;
6499;SDS011;3283;52.330;9.772;2022-07-23T06:26:10;8.67;;;6.27;;
6499;SDS011;3283;52.330;9.772;2022-07-23T06:28:36;7.30;;;6.03;;
6499;SDS011;3283;52.330;9.772;2022-07-23T06:31:01;9.83;;;6.90;;
6499;SDS011;3283;52.330;9.772;2022-07-23T06:33:26;9.10;;;7.10;;
6499;SDS011;3283;52.330;9.772;2022-07-23T06:35:52;8.00;;;6.00;;
6499;SDS011;3283;52.330;9.772;2022-07-23T06:38:17;8.10;;;6.77;;
6499;SDS011;3283;52.330;9.772;2022-07-23T06:40:42;12.87;;;5.70;;
6499;SDS011;3283;52.330;9.772;2022-07-23T06:43:08;6.47;;;4.90;;
6499;SDS011;3283;52.330;9.772;2022-07-23T06:45:34;7.40;;;5.20;;
6499;SDS011;3283;52.330;9.772;2022-07-23T06:47:59;7.20;;;4.40;;
6499;SDS011;3283;52.330;9.772;2022-07-23T06:50:27;7.27;;;5.33;;
6499;SDS011;3283;52.330;9.772;2022-07-23T06:52:52;5.90;;;5.30;;
6499;SDS011;3283;52.330;9.772;2022-07-23T06:55:17;9.77;;;5.50;;
6499;SDS011;3283;52.330;9.772;2022-07-23T06:57:43;7.00;;;4.87;;
6499;SDS011;3283;52.330;9.772;2022-07-23T07:00:08;6.07;;;4.90;;
6499;SDS011;3283;52.330;9.772;2022-07-23T07:02:33;12.40;;;4.90;;
6499;SDS011;3283;52.330;9.772;2022-07-23T07:04:59;6.47;;;5.57;;
6499;SDS011;3283;52.330;9.772;2022-07-23T07:07:24;7.80;;;4.97;;
6499;SDS011;3283;52.330;9.772;2022-07-23T07:09:49;7.33;;;4.80;;
6499;SDS011;3283;52.330;9.772;2022-07-23T07:12:15;8.10;;;5.17;;
6499;SDS011;3283;52.330;9.772;2022-07-23T07:14:40;5.90;;;4.27;;
6499;SDS011;3283;52.330;9.772;2022-07-23T07:17:05;12.80;;;5.00;;
6499;SDS011;3283;52.330;9.772;2022-07-23T07:19:31;9.83;;;5.00;;
6499;SDS011;3283;52.330;9.772;2022-07-23T07:21:56;7.73;;;5.43;;
6499;SDS011;3283;52.330;9.772;2022-07-23T07:24:22;10.23;;;5.77;;
6499;SDS011;3283;52.330;9.772;2022-07-23T07:26:47;6.20;;;4.83;;
6499;SDS011;3283;52.330;9.772;2022-07-23T07:29:12;6.87;;;5.30;;
6499;SDS011;3283;52.330;9.772;2022-07-23T07:31:37;6.80;;;5.93;;
6499;SDS011;3283;52.330;9.772;2022-07-23T07:34:03;6.97;;;5.70;;
6499;SDS011;3283;52.330;9.772;2022-07-23T07:36:28;10.90;;;5.10;;
6499;SDS011;3283;52.330;9.772;2022-07-23T07:38:53;6.37;;;5.00;;
6499;SDS011;3283;52.330;9.772;2022-07-23T07:41:19;6.13;;;4.13;;
6499;SDS011;3283;52.330;9.772;2022-07-23T07:43:48;8.40;;;5.73;;
6499;SDS011;3283;52.330;9.772;2022-07-23T07:46:14;7.20;;;4.67;;
6499;SDS011;3283;52.330;9.772;2022-07-23T07:48:42;7.03;;;4.50;;
6499;SDS011;3283;52.330;9.772;2022-07-23T07:51:07;5.30;;;3.40;;
6499;SDS011;3283;52.330;9.772;2022-07-23T07:53:33;6.63;;;3.67;;
6499;SDS011;3283;52.330;9.772;2022-07-23T07:55:58;5.27;;;4.07;;
6499;SDS011;3283;52.330;9.772;2022-07-23T07:58:23;4.40;;;3.80;;
6499;SDS011;3283;52.330;9.772;2022-07-23T08:00:51;5.07;;;4.57;;
6499;SDS011;3283;52.330;9.772;2022-07-23T08:03:17;4.30;;;3.90;;
6499;SDS011;3283;52.330;9.772;2022-07-23T08:05:42;5.00;;;4.00;;
6499;SDS011;3283;52.330;9.772;2022-07-23T08:08:08;5.80;;;4.70;;
6499;SDS011;3283;52.330;9.772;2022-07-23T08:10:34;5.33;;;4.40;;
6499;SDS011;3283;52.330;9.772;2022-07-23T08:13:00;10.03;;;4.83;;
6499;SDS011;3283;52.330;9.772;2022-07-23T08:15:27;4.27;;;3.10;;
6499;SDS011;3283;52.330;9.772;2022-07-23T08:17:52;5.00;;;3.27;;
6499;SDS011;3283;52.330;9.772;2022-07-23T08:20:18;4.97;;;3.43;;
6499;SDS011;3283;52.330;9.772;2022-07-23T08:25:09;3.70;;;3.40;;
6499;SDS011;3283;52.330;9.772;2022-07-23T08:27:35;5.63;;;3.13;;
6499;SDS011;3283;52.330;9.772;2022-07-23T08:30:00;4.83;;;2.80;;
6499;SDS011;3283;52.330;9.772;2022-07-23T08:32:25;2.70;;;2.00;;
6499;SDS011;3283;52.330;9.772;2022-07-23T08:34:51;2.63;;;2.43;;
6499;SDS011;3283;52.330;9.772;2022-07-23T08:37:16;4.50;;;2.57;;
6499;SDS011;3283;52.330;9.772;2022-07-23T08:39:42;3.37;;;2.53;;
6499;SDS011;3283;52.330;9.772;2022-07-23T08:42:07;3.13;;;2.43;;
6499;SDS011;3283;52.330;9.772;2022-07-23T08:44:33;5.40;;;2.80;;
6499;SDS011;3283;52.330;9.772;2022-07-23T08:46:59;3.93;;;2.40;;
6499;SDS011;3283;52.330;9.772;2022-07-23T08:49:24;3.00;;;2.60;;
6499;SDS011;3283;52.330;9.772;2022-07-23T08:51:50;2.87;;;2.67;;
6499;SDS011;3283;52.330;9.772;2022-07-23T08:54:16;4.57;;;2.43;;
6499;SDS011;3283;52.330;9.772;2022-07-23T08:56:41;4.73;;;2.27;;
6499;SDS011;3283;52.330;9.772;2022-07-23T08:59:07;2.23;;;2.03;;
6499;SDS011;3283;52.330;9.772;2022-07-23T09:01:32;4.13;;;2.30;;
6499;SDS011;3283;52.330;9.772;2022-07-23T09:03:57;4.03;;;2.50;;
6499;SDS011;3283;52.330;9.772;2022-07-23T09:06:23;4.77;;;2.50;;
6499;SDS011;3283;52.330;9.772;2022-07-23T09:08:48;3.17;;;2.07;;
6499;SDS011;3283;52.330;9.772;2022-07-23T09:11:15;4.40;;;2.63;;
6499;SDS011;3283;52.330;9.772;2022-07-23T09:13:42;2.20;;;1.80;;
6499;SDS011;3283;52.330;9.772;2022-07-23T09:16:17;3.50;;;2.33;;
6499;SDS011;3283;52.330;9.772;2022-07-23T09:23:42;4.07;;;2.20;;
6499;SDS011;3283;52.330;9.772;2022-07-23T09:26:27;3.77;;;2.13;;
6499;SDS011;3283;52.330;9.772;2022-07-23T09:29:02;7.80;;;3.90;;
6499;SDS011;3283;52.330;9.772;2022-07-23T09:31:32;2.30;;;2.10;;
6499;SDS011;3283;52.330;9.772;2022-07-23T09:34:08;4.03;;;2.27;;
6499;SDS011;3283;52.330;9.772;2022-07-23T09:36:34;3.87;;;2.33;;
6499;SDS011;3283;52.330;9.772;2022-07-23T09:38:59;4.50;;;2.27;;
6499;SDS011;3283;52.330;9.772;2022-07-23T09:41:25;4.37;;;2.10;;
6499;SDS011;3283;52.330;9.772;2022-07-23T09:43:58;2.20;;;2.00;;
6499;SDS011;3283;52.330;9.772;2022-07-23T09:46:31;2.77;;;2.20;;
6499;SDS011;3283;52.330;9.772;2022-07-23T09:48:56;7.40;;;2.20;;
6499;SDS011;3283;52.330;9.772;2022-07-23T09:51:22;3.27;;;2.20;;
6499;SDS011;3283;52.330;9.772;2022-07-23T09:53:59;4.50;;;2.20;;
6499;SDS011;3283;52.330;9.772;2022-07-23T09:56:25;2.43;;;1.80;;
6499;SDS011;3283;52.330;9.772;2022-07-23T09:58:52;2.67;;;1.60;;
6499;SDS011;3283;52.330;9.772;2022-07-23T10:01:27;3.40;;;2.37;;
6499;SDS011;3283;52.330;9.772;2022-07-23T10:03:53;3.50;;;2.00;;
6499;SDS011;3283;52.330;9.772;2022-07-23T10:06:18;3.53;;;2.50;;
6499;SDS011;3283;52.330;9.772;2022-07-23T10:08:44;3.10;;;2.23;;
6499;SDS011;3283;52.330;9.772;2022-07-23T10:11:09;4.53;;;2.50;;
6499;SDS011;3283;52.330;9.772;2022-07-23T10:13:36;2.77;;;2.10;;
6499;SDS011;3283;52.330;9.772;2022-07-23T10:16:33;4.70;;;2.20;;
6499;SDS011;3283;52.330;9.772;2022-07-23T10:18:58;3.17;;;2.37;;
6499;SDS011;3283;52.330;9.772;2022-07-23T10:21:46;2.97;;;2.10;;
6499;SDS011;3283;52.330;9.772;2022-07-23T10:24:12;4.43;;;1.87;;
6499;SDS011;3283;52.330;9.772;2022-07-23T10:26:45;2.40;;;1.97;;
6499;SDS011;3283;52.330;9.772;2022-07-23T10:32:04;5.23;;;2.50;;
6499;SDS011;3283;52.330;9.772;2022-07-23T10:37:05;5.57;;;2.17;;
6499;SDS011;3283;52.330;9.772;2022-07-23T10:39:33;2.90;;;1.70;;
6499;SDS011;3283;52.330;9.772;2022-07-23T10:42:11;3.87;;;1.70;;
6499;SDS011;3283;52.330;9.772;2022-07-23T10:44:43;2.47;;;1.87;;
6499;SDS011;3283;52.330;9.772;2022-07-23T10:47:09;3.83;;;1.93;;
6499;SDS011;3283;52.330;9.772;2022-07-23T10:49:44;2.53;;;2.33;;
6499;SDS011;3283;52.330;9.772;2022-07-23T10:52:43;3.80;;;2.03;;
6499;SDS011;3283;52.330;9.772;2022-07-23T10:57:27;2.43;;;1.87;;
6499;SDS011;3283;52.330;9.772;2022-07-23T11:02:46;4.13;;;2.13;;
6499;SDS011;3283;52.330;9.772;2022-07-23T11:05:16;3.30;;;2.40;;
6499;SDS011;3283;52.330;9.772;2022-07-23T11:10:45;2.10;;;1.90;;
6499;SDS011;3283;52.330;9.772;2022-07-23T11:13:30;6.03;;;1.93;;
6499;SDS011;3283;52.330;9.772;2022-07-23T11:31:54;1.57;;;1.47;;
6499;SDS011;3283;52.330;9.772;2022-07-23T11:36:57;4.37;;;1.70;;
6499;SDS011;3283;52.330;9.772;2022-07-23T11:39:22;4.93;;;2.10;;
6499;SDS011;3283;52.330;9.772;2022-07-23T11:41:49;3.60;;;1.90;;
6499;SDS011;3283;52.330;9.772;2022-07-23T11:49:21;2.30;;;1.70;;
6499;SDS011;3283;52.330;9.772;2022-07-23T11:51:46;4.00;;;1.73;;
6499;SDS011;3283;52.330;9.772;2022-07-23T11:54:11;2.70;;;1.70;;
6499;SDS011;3283;52.330;9.772;2022-07-23T11:56:37;2.80;;;1.43;;
6499;SDS011;3283;52.330;9.772;2022-07-23T11:59:03;3.97;;;1.50;;
6499;SDS011;3283;52.330;9.772;2022-07-23T12:01:28;1.37;;;1.27;;
6499;SDS011;3283;52.330;9.772;2022-07-23T12:03:53;3.53;;;1.20;;
6499;SDS011;3283;52.330;9.772;2022-07-23T12:06:19;3.00;;;1.60;;
6499;SDS011;3283;52.330;9.772;2022-07-23T12:08:44;3.97;;;1.60;;
6499;SDS011;3283;52.330;9.772;2022-07-23T12:11:11;1.60;;;1.50;;
6499;SDS011;3283;52.330;9.772;2022-07-23T12:13:37;3.57;;;1.40;;
6499;SDS011;3283;52.330;9.772;2022-07-23T12:16:02;1.90;;;1.40;;
6499;SDS011;3283;52.330;9.772;2022-07-23T12:18:29;2.60;;;2.00;;
6499;SDS011;3283;52.330;9.772;2022-07-23T12:20:55;2.07;;;1.87;;
6499;SDS011;3283;52.330;9.772;2022-07-23T12:23:23;1.53;;;1.23;;
6499;SDS011;3283;52.330;9.772;2022-07-23T12:25:50;1.93;;;1.57;;
6499;SDS011;3283;52.330;9.772;2022-07-23T12:28:17;1.50;;;1.40;;
6499;SDS011;3283;52.330;9.772;2022-07-23T12:31:00;3.73;;;1.43;;
6499;SDS011;3283;52.330;9.772;2022-07-23T12:35:55;6.20;;;1.40;;
6499;SDS011;3283;52.330;9.772;2022-07-23T12:38:21;6.03;;;1.60;;
6499;SDS011;3283;52.330;9.772;2022-07-23T12:40:48;10.07;;;1.67;;
6499;SDS011;3283;52.330;9.772;2022-07-23T12:43:27;3.43;;;1.43;;
6499;SDS011;3283;52.330;9.772;2022-07-23T12:48:19;3.47;;;1.30;;
6499;SDS011;3283;52.330;9.772;2022-07-23T12:53:17;2.70;;;1.30;;
6499;SDS011;3283;52.330;9.772;2022-07-23T12:55:43;2.63;;;1.30;;
6499;SDS011;3283;52.330;9.772;2022-07-23T13:03:35;4.90;;;2.80;;
6499;SDS011;3283;52.330;9.772;2022-07-23T13:06:01;2.67;;;1.40;;
6499;SDS011;3283;52.330;9.772;2022-07-23T13:08:28;1.70;;;1.60;;
6499;SDS011;3283;52.330;9.772;2022-07-23T13:10:54;5.90;;;1.87;;
6499;SDS011;3283;52.330;9.772;2022-07-23T13:13:24;2.90;;;1.40;;
6499;SDS011;3283;52.330;9.772;2022-07-23T13:15:50;1.77;;;1.40;;
6499;SDS011;3283;52.330;9.772;2022-07-23T13:18:15;1.50;;;1.30;;
6499;SDS011;3283;52.330;9.772;2022-07-23T13:20:42;1.57;;;1.20;;
6499;SDS011;3283;52.330;9.772;2022-07-23T13:23:07;2.10;;;1.87;;
6499;SDS011;3283;52.330;9.772;2022-07-23T13:25:33;2.97;;;1.40;;
6499;SDS011;3283;52.330;9.772;2022-07-23T13:27:58;1.40;;;1.20;;
6499;SDS011;3283;52.330;9.772;2022-07-23T13:30:23;1.50;;;1.10;;
6499;SDS011;3283;52.330;9.772;2022-07-23T13:32:49;2.07;;;1.30;;
6499;SDS011;3283;52.330;9.772;2022-07-23T13:35:14;1.37;;;1.00;;
6499;SDS011;3283;52.330;9.772;2022-07-23T13:37:39;1.93;;;1.20;;
6499;SDS011;3283;52.330;9.772;2022-07-23T13:40:05;3.90;;;1.30;;
6499;SDS011;3283;52.330;9.772;2022-07-23T13:42:31;2.13;;;1.33;;
6499;SDS011;3283;52.330;9.772;2022-07-23T13:44:56;1.43;;;1.00;;
6499;SDS011;3283;52.330;9.772;2022-07-23T13:47:21;3.73;;;1.20;;
6499;SDS011;3283;52.330;9.772;2022-07-23T13:49:46;1.43;;;1.27;;
6499;SDS011;3283;52.330;9.772;2022-07-23T13:52:12;5.40;;;1.30;;
6499;SDS011;3283;52.330;9.772;2022-07-23T13:54:37;3.40;;;1.40;;
6499;SDS011;3283;52.330;9.772;2022-07-23T13:57:03;1.50;;;0.93;;
6499;SDS011;3283;52.330;9.772;2022-07-23T13:59:28;2.77;;;1.33;;
6499;SDS011;3283;52.330;9.772;2022-07-23T14:01:54;1.87;;;1.37;;
6499;SDS011;3283;52.330;9.772;2022-07-23T14:04:20;1.93;;;1.10;;
6499;SDS011;3283;52.330;9.772;2022-07-23T14:06:45;2.13;;;1.43;;
6499;SDS011;3283;52.330;9.772;2022-07-23T14:09:11;2.03;;;1.47;;
6499;SDS011;3283;52.330;9.772;2022-07-23T14:11:36;1.27;;;1.10;;
6499;SDS011;3283;52.330;9.772;2022-07-23T14:14:01;2.47;;;1.17;;
6499;SDS011;3283;52.330;9.772;2022-07-23T14:16:27;3.90;;;1.30;;
6499;SDS011;3283;52.330;9.772;2022-07-23T14:18:52;5.80;;;1.63;;
6499;SDS011;3283;52.330;9.772;2022-07-23T14:21:18;4.20;;;1.43;;
6499;SDS011;3283;52.330;9.772;2022-07-23T14:23:43;3.37;;;1.20;;
6499;SDS011;3283;52.330;9.772;2022-07-23T14:26:09;1.83;;;1.10;;
6499;SDS011;3283;52.330;9.772;2022-07-23T14:28:34;1.30;;;1.20;;
6499;SDS011;3283;52.330;9.772;2022-07-23T14:31:00;1.30;;;1.20;;
6499;SDS011;3283;52.330;9.772;2022-07-23T14:33:25;2.03;;;1.27;;
6499;SDS011;3283;52.330;9.772;2022-07-23T14:35:50;2.80;;;1.50;;
6499;SDS011;3283;52.330;9.772;2022-07-23T14:38:16;1.10;;;1.00;;
6499;SDS011;3283;52.330;9.772;2022-07-23T14:40:41;1.47;;;1.03;;
6499;SDS011;3283;52.330;9.772;2022-07-23T14:43:07;1.70;;;1.10;;
6499;SDS011;3283;52.330;9.772;2022-07-23T14:45:32;1.40;;;1.30;;
6499;SDS011;3283;52.330;9.772;2022-07-23T14:47:58;3.80;;;1.53;;
6499;SDS011;3283;52.330;9.772;2022-07-23T14:50:23;1.43;;;1.00;;
6499;SDS011;3283;52.330;9.772;2022-07-23T14:52:49;1.70;;;1.40;;
6499;SDS011;3283;52.330;9.772;2022-07-23T14:55:14;0.93;;;0.90;;
6499;SDS011;3283;52.330;9.772;2022-07-23T14:57:42;1.20;;;1.00;;
6499;SDS011;3283;52.330;9.772;2022-07-23T15:00:07;2.23;;;1.40;;
6499;SDS011;3283;52.330;9.772;2022-07-23T15:02:33;1.20;;;1.10;;
6499;SDS011;3283;52.330;9.772;2022-07-23T15:04:58;1.25;;;1.15;;
6499;SDS011;3283;52.330;9.772;2022-07-23T15:07:26;5.27;;;1.10;;
6499;SDS011;3283;52.330;9.772;2022-07-23T15:09:51;1.45;;;1.13;;
6499;SDS011;3283;52.330;9.772;2022-07-23T15:12:17;1.60;;;1.50;;
6499;SDS011;3283;52.330;9.772;2022-07-23T15:14:43;2.60;;;1.00;;
6499;SDS011;3283;52.330;9.772;2022-07-23T15:17:08;1.13;;;0.90;;
6499;SDS011;3283;52.330;9.772;2022-07-23T15:19:33;2.10;;;1.17;;
6499;SDS011;3283;52.330;9.772;2022-07-23T15:21:59;2.87;;;1.20;;
6499;SDS011;3283;52.330;9.772;2022-07-23T15:24:24;1.43;;;1.00;;
6499;SDS011;3283;52.330;9.772;2022-07-23T15:26:49;1.60;;;1.37;;
6499;SDS011;3283;52.330;9.772;2022-07-23T15:29:15;2.40;;;1.17;;
6499;SDS011;3283;52.330;9.772;2022-07-23T15:31:41;5.10;;;1.20;;
6499;SDS011;3283;52.330;9.772;2022-07-23T15:34:06;1.90;;;1.20;;
6499;SDS011;3283;52.330;9.772;2022-07-23T15:36:31;1.23;;;1.00;;
6499;SDS011;3283;52.330;9.772;2022-07-23T15:38:57;3.17;;;1.00;;
6499;SDS011;3283;52.330;9.772;2022-07-23T15:41:22;5.30;;;1.37;;
6499;SDS011;3283;52.330;9.772;2022-07-23T15:43:47;2.57;;;1.40;;
6499;SDS011;3283;52.330;9.772;2022-07-23T15:46:13;1.37;;;0.97;;
6499;SDS011;3283;52.330;9.772;2022-07-23T15:48:38;1.00;;;0.90;;
6499;SDS011;3283;52.330;9.772;2022-07-23T15:51:04;2.28;;;1.10;;
6499;SDS011;3283;52.330;9.772;2022-07-23T15:53:30;2.83;;;1.10;;
6499;SDS011;3283;52.330;9.772;2022-07-23T15:55:56;1.65;;;1.10;;
6499;SDS011;3283;52.330;9.772;2022-07-23T15:58:21;1.00;;;0.90;;
6499;SDS011;3283;52.330;9.772;2022-07-23T16:00:47;1.50;;;0.93;;
6499;SDS011;3283;52.330;9.772;2022-07-23T16:03:13;1.53;;;0.97;;